createdAt,value
2018-03-22T00:04:19.867Z,96249
2018-03-22T00:09:48.020Z,96246
2018-03-22T00:15:16.150Z,96244
2018-03-22T00:20:44.309Z,96244
2018-03-22T00:26:12.492Z,96240
2018-03-22T00:31:40.667Z,96231
2018-03-22T00:37:09.656Z,96209
2018-03-22T00:42:37.897Z,96203
2018-03-22T00:48:06.080Z,96188
2018-03-22T00:53:34.279Z,96189
2018-03-22T00:59:03.220Z,96181
2018-03-22T01:04:35.738Z,96172
2018-03-22T01:10:04.048Z,96178
2018-03-22T01:15:32.214Z,96156
2018-03-22T01:21:00.366Z,96160
2018-03-22T01:26:28.532Z,96145
2018-03-22T01:31:57.469Z,96143
2018-03-22T01:37:26.223Z,96138
2018-03-22T01:42:54.422Z,96133
2018-03-22T01:48:22.586Z,96135
2018-03-22T01:53:50.751Z,96134
2018-03-22T01:59:19.695Z,96124
2018-03-22T02:04:49.013Z,96115
2018-03-22T02:10:17.157Z,96103
2018-03-22T02:15:46.258Z,96099
2018-03-22T02:21:14.434Z,96090
2018-03-22T02:26:43.380Z,96086
2018-03-22T02:32:11.532Z,96081
2018-03-22T02:37:39.695Z,96085
2018-03-22T02:43:08.624Z,96078
2018-03-22T02:48:36.894Z,96084
2018-03-22T02:54:05.075Z,96074
2018-03-22T02:59:34.009Z,96068
2018-03-22T03:05:04.961Z,96055
2018-03-22T03:10:33.956Z,96055
2018-03-22T03:16:03.078Z,96051
2018-03-22T03:21:31.999Z,96046
2018-03-22T03:27:00.136Z,96049
2018-03-22T03:32:29.302Z,96049
2018-03-22T03:37:57.494Z,96045
2018-03-22T03:43:25.635Z,96035
2018-03-22T03:48:54.553Z,96030
2018-03-22T03:54:22.701Z,96025
2018-03-22T03:59:53.854Z,96009
2018-03-22T04:05:22.002Z,96002
2018-03-22T04:10:50.943Z,95995
2018-03-22T04:16:19.063Z,95989
2018-03-22T04:21:47.225Z,95984
2018-03-22T04:27:15.395Z,95975
2018-03-22T04:32:44.302Z,95956
2018-03-22T04:38:12.463Z,95953
2018-03-22T04:43:40.589Z,95973
2018-03-22T04:49:09.722Z,95958
2018-03-22T04:54:37.904Z,95953
2018-03-22T05:00:06.094Z,95951
2018-03-22T05:05:34.246Z,95966
2018-03-22T05:11:03.202Z,95955
2018-03-22T05:16:31.371Z,95930
2018-03-22T05:21:59.559Z,95932
2018-03-22T05:27:28.749Z,95920
2018-03-22T05:32:56.912Z,95919
2018-03-22T05:38:25.839Z,95925
2018-03-22T05:43:54.761Z,95914
2018-03-22T05:49:22.898Z,95907
2018-03-22T05:54:52.742Z,95909
2018-03-22T06:00:21.939Z,95903
2018-03-22T06:05:50.116Z,95900
2018-03-22T06:11:18.305Z,95916
2018-03-22T06:16:46.455Z,95905
2018-03-22T06:22:14.622Z,95908
2018-03-22T06:27:42.762Z,95899
2018-03-22T06:33:10.893Z,95907
2018-03-22T06:38:39.054Z,95899
2018-03-22T06:44:08.120Z,95899
2018-03-22T06:49:36.389Z,95911
2018-03-22T06:55:04.569Z,95901
2018-03-22T07:00:32.714Z,95906
2018-03-22T07:06:00.875Z,95896
2018-03-22T07:11:29.073Z,95893
2018-03-22T07:16:57.235Z,95886
2018-03-22T07:22:25.378Z,95881
2018-03-22T07:27:53.562Z,95869
2018-03-22T07:33:22.489Z,95868
2018-03-22T07:38:51.397Z,95865
2018-03-22T07:44:25.256Z,95862
2018-03-22T07:49:53.723Z,95868
2018-03-22T07:55:22.715Z,95862
2018-03-22T08:00:50.864Z,95856
2018-03-22T08:06:19.800Z,95845
2018-03-22T08:11:48.708Z,95845
2018-03-22T08:17:16.857Z,95839
2018-03-22T08:22:45.757Z,95838
2018-03-22T08:28:13.886Z,95832
2018-03-22T08:33:42.022Z,95825
2018-03-22T08:39:10.917Z,95824
2018-03-22T08:44:39.095Z,95826
2018-03-22T08:50:07.247Z,95813
2018-03-22T08:55:35.386Z,95824
2018-03-22T09:01:03.526Z,95822
2018-03-22T09:06:31.688Z,95817
2018-03-22T09:11:59.819Z,95812
2018-03-22T09:17:27.975Z,95810
2018-03-22T09:22:56.947Z,95802
2018-03-22T09:28:25.861Z,95789
2018-03-22T09:33:54.019Z,95784
2018-03-22T09:39:22.176Z,95785
2018-03-22T09:44:50.301Z,95777
2018-03-22T09:50:18.450Z,95781
2018-03-22T09:55:47.433Z,95763
2018-03-22T10:01:16.411Z,95762
2018-03-22T10:06:44.552Z,95745
2018-03-22T10:12:12.702Z,95736
2018-03-22T10:17:40.846Z,95735
2018-03-22T10:23:09.012Z,95718
2018-03-22T10:28:38.160Z,95700
2018-03-22T10:34:07.120Z,95702
2018-03-22T10:39:35.293Z,95687
2018-03-22T10:45:03.436Z,95673
2018-03-22T10:50:32.330Z,95663
2018-03-22T10:56:00.537Z,95665
2018-03-22T11:07:40.534Z,95645
2018-03-22T11:13:08.752Z,95629
2018-03-22T11:18:36.978Z,95620
2018-03-22T11:24:05.398Z,95623
2018-03-22T11:29:33.540Z,95613
2018-03-22T11:35:01.668Z,95610
2018-03-22T11:40:30.579Z,95605
2018-03-22T11:45:58.728Z,95596
2018-03-22T11:51:27.625Z,95585
2018-03-22T11:56:55.791Z,95577
2018-03-22T12:02:24.710Z,95559
2018-03-22T12:07:53.859Z,95552
2018-03-22T12:13:22.775Z,95544
2018-03-22T12:18:50.932Z,95540
2018-03-22T12:24:19.066Z,95527
2018-03-22T12:29:47.195Z,95520
2018-03-22T12:35:15.357Z,95517
2018-03-22T12:40:43.490Z,95496
2018-03-22T12:46:12.450Z,95495
2018-03-22T12:51:41.375Z,95489
2018-03-22T12:57:09.542Z,95468
2018-03-22T13:02:37.767Z,95459
2018-03-22T13:08:05.966Z,95445
2018-03-22T13:13:34.186Z,95436
2018-03-22T13:19:02.427Z,95439
2018-03-22T13:24:30.555Z,95423
2018-03-22T13:29:58.694Z,95419
2018-03-22T13:35:26.825Z,95418
2018-03-22T13:40:54.996Z,95416
2018-03-22T13:46:23.160Z,95416
2018-03-22T13:51:51.299Z,95389
2018-03-22T13:57:20.281Z,95395
2018-03-22T14:02:49.244Z,95381
2018-03-22T14:08:18.330Z,95392
2018-03-22T14:13:47.550Z,95383
2018-03-22T14:19:15.700Z,95380
2018-03-22T14:24:44.456Z,95368
2018-03-22T14:30:12.665Z,95374
2018-03-22T14:35:40.797Z,95356
2018-03-22T14:41:08.972Z,95346
2018-03-22T14:46:37.969Z,95346
2018-03-22T14:52:06.160Z,95326
2018-03-22T14:57:35.140Z,95302
2018-03-22T15:03:05.645Z,95313
2018-03-22T15:08:34.563Z,95302
2018-03-22T15:14:03.494Z,95301
2018-03-22T15:19:31.672Z,95301
2018-03-22T15:25:01.381Z,95296
2018-03-22T15:30:29.558Z,95302
2018-03-22T15:35:58.657Z,95307
2018-03-22T15:41:28.541Z,95302
2018-03-22T15:46:56.695Z,95290
2018-03-22T15:52:24.818Z,95293
2018-03-22T15:57:52.961Z,95298
2018-03-22T16:03:22.294Z,95301
2018-03-22T16:08:50.438Z,95297
2018-03-22T16:14:19.353Z,95292
2018-03-22T16:19:47.511Z,95294
2018-03-22T16:25:16.413Z,95287
2018-03-22T16:30:44.559Z,95298
2018-03-22T16:36:13.469Z,95299
2018-03-22T16:41:41.634Z,95313
2018-03-22T16:47:09.773Z,95315
2018-03-22T16:52:38.018Z,95317
2018-03-22T16:58:06.228Z,95317
2018-03-22T17:03:44.115Z,95311
2018-03-22T17:09:12.673Z,95308
2018-03-22T17:14:40.908Z,95307
2018-03-22T17:20:09.063Z,95306
2018-03-22T17:25:37.215Z,95321
2018-03-22T17:31:12.050Z,95308
2018-03-22T17:36:40.712Z,95319
2018-03-22T17:42:09.134Z,95318
2018-03-22T17:47:37.427Z,95316
2018-03-22T17:53:05.618Z,95309
2018-03-22T17:58:34.554Z,95306
2018-03-22T18:04:03.491Z,95311
2018-03-22T18:09:33.440Z,95312
2018-03-22T18:15:01.666Z,95318
2018-03-22T18:20:32.919Z,95317
2018-03-22T18:26:03.026Z,95313
2018-03-22T18:31:31.187Z,95314
2018-03-22T18:36:59.350Z,95320
2018-03-22T18:42:27.572Z,95318
2018-03-22T18:47:55.653Z,95318
2018-03-22T18:53:23.822Z,95318
2018-03-22T18:59:04.506Z,95319
2018-03-22T19:04:36.494Z,95304
2018-03-22T19:10:04.834Z,95293
2018-03-22T19:15:32.982Z,95297
2018-03-22T19:21:01.425Z,95290
2018-03-22T19:26:32.330Z,95293
2018-03-22T19:32:00.478Z,95297
2018-03-22T19:37:28.678Z,95300
2018-03-22T19:42:56.994Z,95282
2018-03-22T19:48:26.187Z,95277
2018-03-22T19:53:57.435Z,95278
2018-03-22T19:59:25.616Z,95274
2018-03-22T20:04:53.768Z,95282
2018-03-22T20:10:29.135Z,95273
2018-03-22T20:15:58.208Z,95275
2018-03-22T20:21:26.359Z,95265
2018-03-22T20:26:54.520Z,95263
2018-03-22T20:32:23.425Z,95253
2018-03-22T20:37:51.602Z,95256
2018-03-22T20:43:19.759Z,95251
2018-03-22T20:48:48.695Z,95250
2018-03-22T20:54:16.869Z,95244
2018-03-22T20:59:47.236Z,95230
2018-03-22T21:05:16.408Z,95230
2018-03-22T21:10:44.559Z,95225
2018-03-22T21:16:12.713Z,95230
2018-03-22T21:21:41.888Z,95223
2018-03-22T21:27:10.066Z,95217
2018-03-22T21:32:38.341Z,95208
2018-03-22T21:38:06.516Z,95201
2018-03-22T21:43:35.555Z,95202
2018-03-22T21:49:04.540Z,95207
2018-03-22T21:54:32.698Z,95191
2018-03-22T22:00:00.903Z,95189
2018-03-22T22:05:29.037Z,95192
2018-03-22T22:10:57.246Z,95177
2018-03-22T22:16:25.502Z,95168
2018-03-22T22:21:53.700Z,95167
2018-03-22T22:27:25.734Z,95153
2018-03-22T22:32:55.492Z,95138
2018-03-22T22:38:24.414Z,95133
2018-03-22T22:43:52.563Z,95128
2018-03-22T22:49:20.716Z,95127
2018-03-22T22:54:49.868Z,95124
2018-03-22T23:00:18.949Z,95114
2018-03-22T23:05:47.888Z,95112
2018-03-22T23:11:16.806Z,95102
2018-03-22T23:16:44.977Z,95095
2018-03-22T23:22:13.127Z,95094
2018-03-22T23:27:41.328Z,95091
2018-03-22T23:33:09.474Z,95078
2018-03-22T23:38:37.688Z,95079
2018-03-22T23:44:05.870Z,95083
2018-03-22T23:49:34.077Z,95066
2018-03-22T23:55:02.232Z,95065
